sensor_id;sensor_type;location;lat;lon;timestamp;P1;durP1;ratioP1;P2;durP2;ratioP2
11763;SDS011;5939;56.522;14.950;2023-09-19T00:01:07;6.33;;;5.73;;
11763;SDS011;5939;56.522;14.950;2023-09-19T00:03:34;6.17;;;5.67;;
11763;SDS011;5939;56.522;14.950;2023-09-19T00:06:02;6.33;;;5.73;;
11763;SDS011;5939;56.522;14.950;2023-09-19T00:08:30;6.40;;;5.80;;
11763;SDS011;5939;56.522;14.950;2023-09-19T00:10:55;6.47;;;5.87;;
11763;SDS011;5939;56.522;14.950;2023-09-19T00:13:29;6.37;;;5.77;;
11763;SDS011;5939;56.522;14.950;2023-09-19T00:15:56;6.53;;;5.67;;
11763;SDS011;5939;56.522;14.950;2023-09-19T00:18:24;5.97;;;5.47;;
11763;SDS011;5939;56.522;14.950;2023-09-19T00:20:57;6.53;;;5.93;;
11763;SDS011;5939;56.522;14.950;2023-09-19T00:23:25;6.77;;;6.07;;
11763;SDS011;5939;56.522;14.950;2023-09-19T00:25:52;6.97;;;6.07;;
11763;SDS011;5939;56.522;14.950;2023-09-19T00:28:22;7.60;;;6.83;;
11763;SDS011;5939;56.522;14.950;2023-09-19T00:30:48;6.63;;;6.03;;
11763;SDS011;5939;56.522;14.950;2023-09-19T00:33:17;6.63;;;6.03;;
11763;SDS011;5939;56.522;14.950;2023-09-19T00:35:53;7.07;;;6.37;;
11763;SDS011;5939;56.522;14.950;2023-09-19T00:38:20;6.73;;;6.03;;
11763;SDS011;5939;56.522;14.950;2023-09-19T00:40:49;6.40;;;5.80;;
11763;SDS011;5939;56.522;14.950;2023-09-19T00:43:18;6.30;;;5.70;;
11763;SDS011;5939;56.522;14.950;2023-09-19T00:45:44;6.93;;;6.23;;
11763;SDS011;5939;56.522;14.950;2023-09-19T00:48:13;6.80;;;6.20;;
11763;SDS011;5939;56.522;14.950;2023-09-19T00:50:41;6.67;;;6.07;;
11763;SDS011;5939;56.522;14.950;2023-09-19T00:53:09;6.57;;;5.80;;
11763;SDS011;5939;56.522;14.950;2023-09-19T00:55:39;6.63;;;6.03;;
11763;SDS011;5939;56.522;14.950;2023-09-19T00:58:07;6.87;;;6.23;;
11763;SDS011;5939;56.522;14.950;2023-09-19T01:00:35;7.27;;;6.57;;
11763;SDS011;5939;56.522;14.950;2023-09-19T01:03:01;6.30;;;5.70;;
11763;SDS011;5939;56.522;14.950;2023-09-19T01:05:27;6.80;;;6.13;;
11763;SDS011;5939;56.522;14.950;2023-09-19T01:07:54;6.93;;;6.07;;
11763;SDS011;5939;56.522;14.950;2023-09-19T01:10:20;6.90;;;6.30;;
11763;SDS011;5939;56.522;14.950;2023-09-19T01:21:25;6.57;;;5.97;;
11763;SDS011;5939;56.522;14.950;2023-09-19T01:29:46;6.13;;;5.53;;
11763;SDS011;5939;56.522;14.950;2023-09-19T01:32:17;7.17;;;6.17;;
11763;SDS011;5939;56.522;14.950;2023-09-19T01:37:18;6.97;;;6.27;;
11763;SDS011;5939;56.522;14.950;2023-09-19T01:40:03;6.60;;;6.00;;
11763;SDS011;5939;56.522;14.950;2023-09-19T01:42:45;6.30;;;5.70;;
11763;SDS011;5939;56.522;14.950;2023-09-19T01:45:46;5.97;;;5.37;;
11763;SDS011;5939;56.522;14.950;2023-09-19T01:48:35;6.27;;;5.67;;
11763;SDS011;5939;56.522;14.950;2023-09-19T01:51:13;7.67;;;6.40;;
11763;SDS011;5939;56.522;14.950;2023-09-19T01:53:50;6.20;;;5.60;;
11763;SDS011;5939;56.522;14.950;2023-09-19T01:56:32;6.83;;;6.23;;
11763;SDS011;5939;56.522;14.950;2023-09-19T01:59:07;6.47;;;5.87;;
11763;SDS011;5939;56.522;14.950;2023-09-19T02:01:38;6.73;;;6.13;;
11763;SDS011;5939;56.522;14.950;2023-09-19T02:04:05;6.53;;;5.93;;
11763;SDS011;5939;56.522;14.950;2023-09-19T02:06:32;7.90;;;6.20;;
11763;SDS011;5939;56.522;14.950;2023-09-19T02:09:01;7.07;;;6.37;;
11763;SDS011;5939;56.522;14.950;2023-09-19T02:11:28;5.80;;;5.30;;
11763;SDS011;5939;56.522;14.950;2023-09-19T02:13:54;6.33;;;5.73;;
11763;SDS011;5939;56.522;14.950;2023-09-19T02:16:20;6.57;;;5.90;;
11763;SDS011;5939;56.522;14.950;2023-09-19T02:18:49;6.17;;;5.57;;
11763;SDS011;5939;56.522;14.950;2023-09-19T02:21:16;6.90;;;6.20;;
11763;SDS011;5939;56.522;14.950;2023-09-19T02:23:42;6.47;;;5.87;;
11763;SDS011;5939;56.522;14.950;2023-09-19T02:26:09;6.83;;;6.23;;
11763;SDS011;5939;56.522;14.950;2023-09-19T02:28:36;7.37;;;6.00;;
11763;SDS011;5939;56.522;14.950;2023-09-19T02:31:02;6.97;;;6.13;;
11763;SDS011;5939;56.522;14.950;2023-09-19T02:33:30;7.37;;;6.50;;
11763;SDS011;5939;56.522;14.950;2023-09-19T02:35:57;10.10;;;6.73;;
11763;SDS011;5939;56.522;14.950;2023-09-19T02:38:24;7.03;;;6.33;;
11763;SDS011;5939;56.522;14.950;2023-09-19T02:40:51;7.13;;;6.43;;
11763;SDS011;5939;56.522;14.950;2023-09-19T02:43:17;7.93;;;6.40;;
11763;SDS011;5939;56.522;14.950;2023-09-19T02:45:44;8.33;;;6.63;;
11763;SDS011;5939;56.522;14.950;2023-09-19T02:48:11;7.07;;;6.10;;
11763;SDS011;5939;56.522;14.950;2023-09-19T02:50:37;7.93;;;6.40;;
11763;SDS011;5939;56.522;14.950;2023-09-19T02:53:05;7.77;;;6.97;;
11763;SDS011;5939;56.522;14.950;2023-09-19T02:55:31;6.97;;;6.27;;
11763;SDS011;5939;56.522;14.950;2023-09-19T02:57:57;7.40;;;6.13;;
11763;SDS011;5939;56.522;14.950;2023-09-19T03:00:23;8.67;;;6.40;;
11763;SDS011;5939;56.522;14.950;2023-09-19T03:02:49;8.80;;;7.10;;
11763;SDS011;5939;56.522;14.950;2023-09-19T03:05:18;7.17;;;6.47;;
11763;SDS011;5939;56.522;14.950;2023-09-19T03:07:44;7.50;;;6.30;;
11763;SDS011;5939;56.522;14.950;2023-09-19T03:10:12;7.30;;;6.57;;
11763;SDS011;5939;56.522;14.950;2023-09-19T03:12:39;7.07;;;6.37;;
11763;SDS011;5939;56.522;14.950;2023-09-19T03:15:05;7.83;;;7.03;;
11763;SDS011;5939;56.522;14.950;2023-09-19T03:17:33;6.37;;;5.77;;
11763;SDS011;5939;56.522;14.950;2023-09-19T03:19:59;6.87;;;6.27;;
11763;SDS011;5939;56.522;14.950;2023-09-19T03:22:26;7.73;;;6.93;;
11763;SDS011;5939;56.522;14.950;2023-09-19T03:24:52;8.00;;;6.53;;
11763;SDS011;5939;56.522;14.950;2023-09-19T03:27:18;7.83;;;6.60;;
11763;SDS011;5939;56.522;14.950;2023-09-19T03:29:43;9.90;;;6.60;;
11763;SDS011;5939;56.522;14.950;2023-09-19T03:32:09;8.20;;;6.60;;
11763;SDS011;5939;56.522;14.950;2023-09-19T03:34:36;7.43;;;6.30;;
11763;SDS011;5939;56.522;14.950;2023-09-19T03:37:05;7.60;;;6.90;;
11763;SDS011;5939;56.522;14.950;2023-09-19T03:39:31;8.40;;;7.00;;
11763;SDS011;5939;56.522;14.950;2023-09-19T03:41:57;8.07;;;6.60;;
11763;SDS011;5939;56.522;14.950;2023-09-19T03:44:23;7.33;;;6.37;;
11763;SDS011;5939;56.522;14.950;2023-09-19T03:46:48;7.00;;;6.20;;
11763;SDS011;5939;56.522;14.950;2023-09-19T03:49:14;7.10;;;6.37;;
11763;SDS011;5939;56.522;14.950;2023-09-19T03:51:40;7.13;;;6.17;;
11763;SDS011;5939;56.522;14.950;2023-09-19T03:54:06;8.03;;;6.33;;
11763;SDS011;5939;56.522;14.950;2023-09-19T03:56:32;6.93;;;6.20;;
11763;SDS011;5939;56.522;14.950;2023-09-19T03:58:58;6.63;;;5.93;;
11763;SDS011;5939;56.522;14.950;2023-09-19T04:01:24;6.87;;;5.97;;
11763;SDS011;5939;56.522;14.950;2023-09-19T04:03:49;7.20;;;6.10;;
11763;SDS011;5939;56.522;14.950;2023-09-19T04:06:17;7.23;;;5.63;;
11763;SDS011;5939;56.522;14.950;2023-09-19T04:08:43;6.33;;;5.73;;
11763;SDS011;5939;56.522;14.950;2023-09-19T04:11:09;7.23;;;5.70;;
11763;SDS011;5939;56.522;14.950;2023-09-19T04:13:35;5.90;;;5.30;;
11763;SDS011;5939;56.522;14.950;2023-09-19T04:16:01;6.93;;;5.80;;
11763;SDS011;5939;56.522;14.950;2023-09-19T04:18:31;6.13;;;5.40;;
11763;SDS011;5939;56.522;14.950;2023-09-19T04:20:58;5.70;;;5.10;;
11763;SDS011;5939;56.522;14.950;2023-09-19T04:23:27;6.03;;;5.43;;
11763;SDS011;5939;56.522;14.950;2023-09-19T04:25:53;5.47;;;4.90;;
11763;SDS011;5939;56.522;14.950;2023-09-19T04:28:19;6.60;;;5.30;;
11763;SDS011;5939;56.522;14.950;2023-09-19T04:30:44;5.30;;;4.80;;
11763;SDS011;5939;56.522;14.950;2023-09-19T04:33:10;5.93;;;5.27;;
11763;SDS011;5939;56.522;14.950;2023-09-19T04:35:39;7.20;;;5.30;;
11763;SDS011;5939;56.522;14.950;2023-09-19T04:38:07;6.93;;;5.03;;
11763;SDS011;5939;56.522;14.950;2023-09-19T04:40:33;6.87;;;5.20;;
11763;SDS011;5939;56.522;14.950;2023-09-19T04:43:00;5.07;;;4.50;;
11763;SDS011;5939;56.522;14.950;2023-09-19T04:45:26;5.17;;;4.67;;
11763;SDS011;5939;56.522;14.950;2023-09-19T04:47:53;5.87;;;4.00;;
11763;SDS011;5939;56.522;14.950;2023-09-19T04:50:19;6.43;;;4.73;;
11763;SDS011;5939;56.522;14.950;2023-09-19T04:52:50;6.37;;;4.43;;
11763;SDS011;5939;56.522;14.950;2023-09-19T04:55:16;5.10;;;4.23;;
11763;SDS011;5939;56.522;14.950;2023-09-19T04:57:43;5.17;;;4.20;;
11763;SDS011;5939;56.522;14.950;2023-09-19T05:00:11;4.97;;;4.43;;
11763;SDS011;5939;56.522;14.950;2023-09-19T05:02:39;5.40;;;3.90;;
11763;SDS011;5939;56.522;14.950;2023-09-19T05:05:09;5.23;;;3.97;;
11763;SDS011;5939;56.522;14.950;2023-09-19T05:07:42;7.23;;;4.17;;
11763;SDS011;5939;56.522;14.950;2023-09-19T05:10:09;5.70;;;4.33;;
11763;SDS011;5939;56.522;14.950;2023-09-19T05:12:35;4.67;;;3.93;;
11763;SDS011;5939;56.522;14.950;2023-09-19T05:15:04;4.67;;;3.77;;
11763;SDS011;5939;56.522;14.950;2023-09-19T05:17:32;6.03;;;3.60;;
11763;SDS011;5939;56.522;14.950;2023-09-19T05:19:58;3.73;;;3.43;;
11763;SDS011;5939;56.522;14.950;2023-09-19T05:22:28;4.97;;;3.50;;
11763;SDS011;5939;56.522;14.950;2023-09-19T05:24:54;4.07;;;3.27;;
11763;SDS011;5939;56.522;14.950;2023-09-19T05:27:20;5.37;;;3.60;;
11763;SDS011;5939;56.522;14.950;2023-09-19T05:29:46;4.17;;;3.77;;
11763;SDS011;5939;56.522;14.950;2023-09-19T05:32:12;4.13;;;3.37;;
11763;SDS011;5939;56.522;14.950;2023-09-19T05:34:38;5.83;;;3.30;;
11763;SDS011;5939;56.522;14.950;2023-09-19T05:37:04;5.43;;;3.60;;
11763;SDS011;5939;56.522;14.950;2023-09-19T05:39:32;3.43;;;3.10;;
11763;SDS011;5939;56.522;14.950;2023-09-19T05:41:58;3.70;;;3.00;;
11763;SDS011;5939;56.522;14.950;2023-09-19T05:44:25;3.43;;;3.03;;
11763;SDS011;5939;56.522;14.950;2023-09-19T05:46:51;3.57;;;3.27;;
11763;SDS011;5939;56.522;14.950;2023-09-19T05:49:16;3.63;;;2.90;;
11763;SDS011;5939;56.522;14.950;2023-09-19T05:51:42;4.33;;;2.90;;
11763;SDS011;5939;56.522;14.950;2023-09-19T05:54:08;3.20;;;2.90;;
11763;SDS011;5939;56.522;14.950;2023-09-19T05:56:34;3.47;;;2.87;;
11763;SDS011;5939;56.522;14.950;2023-09-19T05:58:59;5.37;;;2.97;;
11763;SDS011;5939;56.522;14.950;2023-09-19T06:01:25;4.60;;;2.83;;
11763;SDS011;5939;56.522;14.950;2023-09-19T06:03:52;4.80;;;2.73;;
11763;SDS011;5939;56.522;14.950;2023-09-19T06:06:18;2.93;;;2.63;;
11763;SDS011;5939;56.522;14.950;2023-09-19T06:08:44;3.07;;;2.73;;
11763;SDS011;5939;56.522;14.950;2023-09-19T06:11:09;4.53;;;2.47;;
11763;SDS011;5939;56.522;14.950;2023-09-19T06:13:36;3.47;;;2.70;;
11763;SDS011;5939;56.522;14.950;2023-09-19T06:16:04;2.60;;;2.40;;
11763;SDS011;5939;56.522;14.950;2023-09-19T06:18:30;3.40;;;2.63;;
11763;SDS011;5939;56.522;14.950;2023-09-19T06:20:58;2.80;;;2.57;;
11763;SDS011;5939;56.522;14.950;2023-09-19T06:23:24;3.57;;;2.43;;
11763;SDS011;5939;56.522;14.950;2023-09-19T06:25:52;2.70;;;2.50;;
11763;SDS011;5939;56.522;14.950;2023-09-19T06:28:18;3.27;;;2.60;;
11763;SDS011;5939;56.522;14.950;2023-09-19T06:30:49;3.97;;;2.50;;
11763;SDS011;5939;56.522;14.950;2023-09-19T06:33:14;2.77;;;2.10;;
11763;SDS011;5939;56.522;14.950;2023-09-19T06:35:40;3.73;;;2.03;;
11763;SDS011;5939;56.522;14.950;2023-09-19T06:38:07;2.73;;;2.00;;
11763;SDS011;5939;56.522;14.950;2023-09-19T06:40:36;2.30;;;2.10;;
11763;SDS011;5939;56.522;14.950;2023-09-19T06:43:01;3.90;;;2.60;;
11763;SDS011;5939;56.522;14.950;2023-09-19T06:45:27;3.07;;;2.10;;
11763;SDS011;5939;56.522;14.950;2023-09-19T06:47:53;2.27;;;1.97;;
11763;SDS011;5939;56.522;14.950;2023-09-19T06:50:22;2.33;;;2.13;;
11763;SDS011;5939;56.522;14.950;2023-09-19T06:52:49;3.53;;;1.90;;
11763;SDS011;5939;56.522;14.950;2023-09-19T06:55:17;3.67;;;1.97;;
11763;SDS011;5939;56.522;14.950;2023-09-19T06:57:44;2.43;;;1.83;;
11763;SDS011;5939;56.522;14.950;2023-09-19T07:00:13;2.50;;;1.70;;
11763;SDS011;5939;56.522;14.950;2023-09-19T07:02:58;3.23;;;2.20;;
11763;SDS011;5939;56.522;14.950;2023-09-19T07:05:30;2.00;;;1.80;;
11763;SDS011;5939;56.522;14.950;2023-09-19T07:07:57;2.40;;;1.90;;
11763;SDS011;5939;56.522;14.950;2023-09-19T07:10:24;3.73;;;2.27;;
11763;SDS011;5939;56.522;14.950;2023-09-19T07:13:01;1.70;;;1.60;;
11763;SDS011;5939;56.522;14.950;2023-09-19T07:15:32;2.87;;;1.60;;
11763;SDS011;5939;56.522;14.950;2023-09-19T07:18:00;2.40;;;1.80;;
11763;SDS011;5939;56.522;14.950;2023-09-19T07:20:26;2.33;;;1.70;;
11763;SDS011;5939;56.522;14.950;2023-09-19T07:22:54;3.23;;;1.90;;
11763;SDS011;5939;56.522;14.950;2023-09-19T07:25:20;2.30;;;1.60;;
11763;SDS011;5939;56.522;14.950;2023-09-19T07:27:46;2.77;;;1.50;;
11763;SDS011;5939;56.522;14.950;2023-09-19T07:30:12;1.93;;;1.50;;
11763;SDS011;5939;56.522;14.950;2023-09-19T07:32:40;2.50;;;1.80;;
11763;SDS011;5939;56.522;14.950;2023-09-19T07:35:06;3.60;;;1.90;;
11763;SDS011;5939;56.522;14.950;2023-09-19T07:37:32;3.53;;;1.80;;
11763;SDS011;5939;56.522;14.950;2023-09-19T07:40:07;1.87;;;1.57;;
11763;SDS011;5939;56.522;14.950;2023-09-19T07:42:37;3.47;;;1.70;;
11763;SDS011;5939;56.522;14.950;2023-09-19T07:45:05;2.53;;;1.67;;
11763;SDS011;5939;56.522;14.950;2023-09-19T07:47:32;4.03;;;1.70;;
11763;SDS011;5939;56.522;14.950;2023-09-19T07:49:59;2.50;;;1.53;;
11763;SDS011;5939;56.522;14.950;2023-09-19T07:52:27;4.13;;;1.63;;
11763;SDS011;5939;56.522;14.950;2023-09-19T07:54:53;4.43;;;1.80;;
11763;SDS011;5939;56.522;14.950;2023-09-19T07:57:19;2.73;;;1.53;;
11763;SDS011;5939;56.522;14.950;2023-09-19T07:59:45;2.97;;;1.77;;
11763;SDS011;5939;56.522;14.950;2023-09-19T08:02:10;3.30;;;1.87;;
11763;SDS011;5939;56.522;14.950;2023-09-19T08:04:42;2.57;;;1.67;;
11763;SDS011;5939;56.522;14.950;2023-09-19T08:07:08;3.60;;;1.87;;
11763;SDS011;5939;56.522;14.950;2023-09-19T08:09:34;1.93;;;1.33;;
11763;SDS011;5939;56.522;14.950;2023-09-19T08:11:59;2.93;;;1.43;;
11763;SDS011;5939;56.522;14.950;2023-09-19T08:14:30;2.90;;;1.60;;
11763;SDS011;5939;56.522;14.950;2023-09-19T08:16:56;5.27;;;1.67;;
11763;SDS011;5939;56.522;14.950;2023-09-19T08:19:23;2.60;;;1.80;;
11763;SDS011;5939;56.522;14.950;2023-09-19T08:21:53;2.97;;;1.70;;
11763;SDS011;5939;56.522;14.950;2023-09-19T08:24:23;2.20;;;1.73;;
11763;SDS011;5939;56.522;14.950;2023-09-19T08:26:52;5.03;;;1.80;;
11763;SDS011;5939;56.522;14.950;2023-09-19T08:29:19;4.60;;;1.67;;
11763;SDS011;5939;56.522;14.950;2023-09-19T08:31:45;3.07;;;1.57;;
11763;SDS011;5939;56.522;14.950;2023-09-19T08:34:13;4.27;;;1.70;;
11763;SDS011;5939;56.522;14.950;2023-09-19T08:36:39;3.33;;;1.70;;
11763;SDS011;5939;56.522;14.950;2023-09-19T08:39:06;2.47;;;1.60;;
11763;SDS011;5939;56.522;14.950;2023-09-19T08:41:33;2.20;;;1.63;;
11763;SDS011;5939;56.522;14.950;2023-09-19T08:43:59;2.77;;;1.67;;
11763;SDS011;5939;56.522;14.950;2023-09-19T08:46:28;2.17;;;1.70;;
11763;SDS011;5939;56.522;14.950;2023-09-19T08:49:08;2.57;;;1.60;;
11763;SDS011;5939;56.522;14.950;2023-09-19T08:51:45;1.87;;;1.33;;
11763;SDS011;5939;56.522;14.950;2023-09-19T08:54:22;2.40;;;1.50;;
11763;SDS011;5939;56.522;14.950;2023-09-19T08:56:54;4.00;;;1.67;;
11763;SDS011;5939;56.522;14.950;2023-09-19T08:59:22;3.57;;;1.70;;
11763;SDS011;5939;56.522;14.950;2023-09-19T09:01:52;3.77;;;1.87;;
11763;SDS011;5939;56.522;14.950;2023-09-19T09:04:20;3.13;;;1.80;;
11763;SDS011;5939;56.522;14.950;2023-09-19T09:06:47;3.33;;;1.70;;
11763;SDS011;5939;56.522;14.950;2023-09-19T09:09:18;3.47;;;1.80;;
11763;SDS011;5939;56.522;14.950;2023-09-19T09:11:44;2.13;;;1.60;;
11763;SDS011;5939;56.522;14.950;2023-09-19T09:14:13;3.27;;;1.77;;
11763;SDS011;5939;56.522;14.950;2023-09-19T09:16:39;6.23;;;1.60;;
11763;SDS011;5939;56.522;14.950;2023-09-19T09:19:05;3.93;;;1.63;;
11763;SDS011;5939;56.522;14.950;2023-09-19T09:21:30;2.57;;;1.60;;
11763;SDS011;5939;56.522;14.950;2023-09-19T09:24:25;2.70;;;1.47;;
11763;SDS011;5939;56.522;14.950;2023-09-19T09:26:56;3.37;;;1.70;;
11763;SDS011;5939;56.522;14.950;2023-09-19T09:29:41;2.53;;;1.60;;
11763;SDS011;5939;56.522;14.950;2023-09-19T09:34:50;2.87;;;1.57;;
11763;SDS011;5939;56.522;14.950;2023-09-19T09:37:18;4.40;;;1.63;;
11763;SDS011;5939;56.522;14.950;2023-09-19T09:39:50;3.57;;;1.90;;
11763;SDS011;5939;56.522;14.950;2023-09-19T09:45:23;2.73;;;1.60;;
11763;SDS011;5939;56.522;14.950;2023-09-19T09:47:58;3.43;;;1.80;;
11763;SDS011;5939;56.522;14.950;2023-09-19T09:50:29;5.07;;;1.83;;
11763;SDS011;5939;56.522;14.950;2023-09-19T09:53:25;7.47;;;2.00;;
11763;SDS011;5939;56.522;14.950;2023-09-19T09:58:35;3.00;;;2.13;;
11763;SDS011;5939;56.522;14.950;2023-09-19T10:01:05;4.30;;;1.93;;
11763;SDS011;5939;56.522;14.950;2023-09-19T10:03:35;4.00;;;2.00;;
11763;SDS011;5939;56.522;14.950;2023-09-19T10:06:09;2.73;;;1.67;;
11763;SDS011;5939;56.522;14.950;2023-09-19T10:09:04;5.07;;;2.20;;
11763;SDS011;5939;56.522;14.950;2023-09-19T10:11:48;3.47;;;1.83;;
11763;SDS011;5939;56.522;14.950;2023-09-19T10:14:33;2.90;;;2.00;;
11763;SDS011;5939;56.522;14.950;2023-09-19T10:17:04;3.97;;;2.20;;
11763;SDS011;5939;56.522;14.950;2023-09-19T10:19:36;3.73;;;2.20;;
11763;SDS011;5939;56.522;14.950;2023-09-19T10:22:09;4.67;;;1.93;;
11763;SDS011;5939;56.522;14.950;2023-09-19T10:24:37;3.97;;;1.60;;
11763;SDS011;5939;56.522;14.950;2023-09-19T10:27:04;6.40;;;2.43;;
11763;SDS011;5939;56.522;14.950;2023-09-19T10:29:34;6.40;;;2.00;;
11763;SDS011;5939;56.522;14.950;2023-09-19T10:32:04;5.07;;;2.00;;
11763;SDS011;5939;56.522;14.950;2023-09-19T10:34:37;4.03;;;2.00;;
11763;SDS011;5939;56.522;14.950;2023-09-19T10:37:06;3.13;;;2.07;;
11763;SDS011;5939;56.522;14.950;2023-09-19T10:39:36;4.27;;;2.00;;
11763;SDS011;5939;56.522;14.950;2023-09-19T10:42:16;4.30;;;2.50;;
11763;SDS011;5939;56.522;14.950;2023-09-19T10:44:49;3.93;;;1.90;;
11763;SDS011;5939;56.522;14.950;2023-09-19T10:47:19;4.53;;;1.97;;
11763;SDS011;5939;56.522;14.950;2023-09-19T10:49:45;3.73;;;2.23;;
11763;SDS011;5939;56.522;14.950;2023-09-19T10:52:12;6.57;;;2.30;;
11763;SDS011;5939;56.522;14.950;2023-09-19T10:54:47;3.90;;;1.93;;
11763;SDS011;5939;56.522;14.950;2023-09-19T10:57:20;4.23;;;1.90;;
11763;SDS011;5939;56.522;14.950;2023-09-19T11:00:04;3.87;;;1.80;;
11763;SDS011;5939;56.522;14.950;2023-09-19T11:05:40;5.07;;;1.77;;
11763;SDS011;5939;56.522;14.950;2023-09-19T11:08:06;2.73;;;1.50;;
11763;SDS011;5939;56.522;14.950;2023-09-19T11:10:48;3.50;;;1.37;;
11763;SDS011;5939;56.522;14.950;2023-09-19T11:13:25;3.70;;;1.40;;
11763;SDS011;5939;56.522;14.950;2023-09-19T11:27:11;2.00;;;1.30;;
11763;SDS011;5939;56.522;14.950;2023-09-19T11:29:39;3.00;;;1.67;;
11763;SDS011;5939;56.522;14.950;2023-09-19T11:32:06;1.43;;;1.20;;
11763;SDS011;5939;56.522;14.950;2023-09-19T11:34:41;2.50;;;1.20;;
11763;SDS011;5939;56.522;14.950;2023-09-19T11:40:04;3.10;;;1.27;;
11763;SDS011;5939;56.522;14.950;2023-09-19T11:42:48;2.03;;;1.13;;
11763;SDS011;5939;56.522;14.950;2023-09-19T11:48:18;2.03;;;1.27;;
11763;SDS011;5939;56.522;14.950;2023-09-19T11:50:45;2.37;;;1.00;;
11763;SDS011;5939;56.522;14.950;2023-09-19T11:53:12;1.30;;;1.10;;
11763;SDS011;5939;56.522;14.950;2023-09-19T11:55:39;3.67;;;1.13;;
11763;SDS011;5939;56.522;14.950;2023-09-19T11:58:08;2.03;;;1.23;;
11763;SDS011;5939;56.522;14.950;2023-09-19T12:00:35;3.13;;;1.10;;
11763;SDS011;5939;56.522;14.950;2023-09-19T12:03:10;3.50;;;1.37;;
11763;SDS011;5939;56.522;14.950;2023-09-19T12:05:37;3.37;;;1.13;;
11763;SDS011;5939;56.522;14.950;2023-09-19T12:08:07;2.40;;;1.20;;
11763;SDS011;5939;56.522;14.950;2023-09-19T12:10:54;3.93;;;1.27;;
11763;SDS011;5939;56.522;14.950;2023-09-19T12:13:23;2.33;;;1.20;;
11763;SDS011;5939;56.522;14.950;2023-09-19T12:15:49;2.07;;;1.00;;
11763;SDS011;5939;56.522;14.950;2023-09-19T12:18:27;2.77;;;1.20;;
11763;SDS011;5939;56.522;14.950;2023-09-19T12:20:56;2.23;;;1.20;;
11763;SDS011;5939;56.522;14.950;2023-09-19T12:23:23;1.43;;;1.10;;
11763;SDS011;5939;56.522;14.950;2023-09-19T12:25:50;2.70;;;1.03;;
11763;SDS011;5939;56.522;14.950;2023-09-19T12:28:18;2.47;;;1.07;;
11763;SDS011;5939;56.522;14.950;2023-09-19T12:30:47;2.73;;;1.47;;
11763;SDS011;5939;56.522;14.950;2023-09-19T12:33:20;3.53;;;1.27;;
11763;SDS011;5939;56.522;14.950;2023-09-19T12:35:49;3.03;;;1.27;;
11763;SDS011;5939;56.522;14.950;2023-09-19T12:38:27;1.93;;;1.10;;
11763;SDS011;5939;56.522;14.950;2023-09-19T12:40:54;2.20;;;1.10;;
11763;SDS011;5939;56.522;14.950;2023-09-19T12:43:23;2.37;;;1.10;;
11763;SDS011;5939;56.522;14.950;2023-09-19T12:45:50;1.80;;;1.23;;
11763;SDS011;5939;56.522;14.950;2023-09-19T12:48:19;1.50;;;1.10;;
11763;SDS011;5939;56.522;14.950;2023-09-19T12:51:34;2.60;;;1.23;;
11763;SDS011;5939;56.522;14.950;2023-09-19T12:53:38;4.33;;;1.50;;
11763;SDS011;5939;56.522;14.950;2023-09-19T12:56:09;2.53;;;1.27;;
11763;SDS011;5939;56.522;14.950;2023-09-19T12:58:54;4.30;;;1.40;;
11763;SDS011;5939;56.522;14.950;2023-09-19T13:01:25;2.77;;;1.10;;
11763;SDS011;5939;56.522;14.950;2023-09-19T13:04:10;2.50;;;1.57;;
11763;SDS011;5939;56.522;14.950;2023-09-19T13:06:37;1.27;;;1.03;;
11763;SDS011;5939;56.522;14.950;2023-09-19T13:09:08;2.50;;;1.13;;
11763;SDS011;5939;56.522;14.950;2023-09-19T13:11:37;2.83;;;1.30;;
11763;SDS011;5939;56.522;14.950;2023-09-19T13:14:21;2.53;;;1.20;;
11763;SDS011;5939;56.522;14.950;2023-09-19T13:16:56;2.57;;;1.50;;
11763;SDS011;5939;56.522;14.950;2023-09-19T13:19:49;3.37;;;1.27;;
11763;SDS011;5939;56.522;14.950;2023-09-19T13:25:20;2.53;;;1.27;;
11763;SDS011;5939;56.522;14.950;2023-09-19T13:27:53;2.67;;;1.37;;
11763;SDS011;5939;56.522;14.950;2023-09-19T13:30:21;4.23;;;1.57;;
11763;SDS011;5939;56.522;14.950;2023-09-19T13:32:50;4.23;;;1.47;;
11763;SDS011;5939;56.522;14.950;2023-09-19T13:35:17;2.13;;;1.20;;
11763;SDS011;5939;56.522;14.950;2023-09-19T13:37:43;2.97;;;1.57;;
11763;SDS011;5939;56.522;14.950;2023-09-19T13:40:12;1.63;;;1.10;;
11763;SDS011;5939;56.522;14.950;2023-09-19T13:42:39;3.27;;;1.13;;
11763;SDS011;5939;56.522;14.950;2023-09-19T13:45:07;2.50;;;1.20;;
11763;SDS011;5939;56.522;14.950;2023-09-19T13:47:36;1.77;;;1.40;;
11763;SDS011;5939;56.522;14.950;2023-09-19T13:50:03;2.70;;;1.40;;
11763;SDS011;5939;56.522;14.950;2023-09-19T13:52:30;2.43;;;1.20;;
11763;SDS011;5939;56.522;14.950;2023-09-19T13:54:56;3.00;;;1.13;;
11763;SDS011;5939;56.522;14.950;2023-09-19T13:57:23;3.00;;;1.30;;
11763;SDS011;5939;56.522;14.950;2023-09-19T13:59:49;3.30;;;1.30;;
11763;SDS011;5939;56.522;14.950;2023-09-19T14:02:16;2.17;;;1.17;;
11763;SDS011;5939;56.522;14.950;2023-09-19T14:04:43;3.03;;;1.27;;
11763;SDS011;5939;56.522;14.950;2023-09-19T14:07:09;2.63;;;1.60;;
11763;SDS011;5939;56.522;14.950;2023-09-19T14:09:36;1.93;;;1.50;;
11763;SDS011;5939;56.522;14.950;2023-09-19T14:12:02;2.20;;;1.10;;
11763;SDS011;5939;56.522;14.950;2023-09-19T14:14:27;3.10;;;1.33;;
11763;SDS011;5939;56.522;14.950;2023-09-19T14:16:53;3.73;;;1.43;;
11763;SDS011;5939;56.522;14.950;2023-09-19T14:19:20;2.07;;;1.40;;
11763;SDS011;5939;56.522;14.950;2023-09-19T14:21:46;4.43;;;1.47;;
11763;SDS011;5939;56.522;14.950;2023-09-19T14:24:16;3.27;;;1.20;;
11763;SDS011;5939;56.522;14.950;2023-09-19T14:26:42;4.90;;;1.40;;
11763;SDS011;5939;56.522;14.950;2023-09-19T14:29:08;3.30;;;1.37;;
11763;SDS011;5939;56.522;14.950;2023-09-19T14:31:36;5.40;;;1.50;;
11763;SDS011;5939;56.522;14.950;2023-09-19T14:34:05;3.27;;;1.20;;
11763;SDS011;5939;56.522;14.950;2023-09-19T14:36:31;3.57;;;1.70;;
11763;SDS011;5939;56.522;14.950;2023-09-19T14:38:58;3.70;;;1.30;;
11763;SDS011;5939;56.522;14.950;2023-09-19T14:41:24;3.27;;;1.67;;
11763;SDS011;5939;56.522;14.950;2023-09-19T14:43:53;2.77;;;1.20;;
11763;SDS011;5939;56.522;14.950;2023-09-19T14:46:20;3.43;;;1.40;;
11763;SDS011;5939;56.522;14.950;2023-09-19T14:48:46;3.70;;;1.40;;
11763;SDS011;5939;56.522;14.950;2023-09-19T14:51:12;2.33;;;1.10;;
11763;SDS011;5939;56.522;14.950;2023-09-19T14:53:39;1.67;;;1.07;;
11763;SDS011;5939;56.522;14.950;2023-09-19T14:56:08;3.17;;;1.40;;
11763;SDS011;5939;56.522;14.950;2023-09-19T14:58:34;3.47;;;1.10;;
11763;SDS011;5939;56.522;14.950;2023-09-19T15:03:33;2.13;;;1.20;;
11763;SDS011;5939;56.522;14.950;2023-09-19T15:06:03;1.77;;;1.20;;
11763;SDS011;5939;56.522;14.950;2023-09-19T15:08:30;1.90;;;1.20;;
11763;SDS011;5939;56.522;14.950;2023-09-19T15:10:56;2.70;;;1.20;;
11763;SDS011;5939;56.522;14.950;2023-09-19T15:13:23;3.50;;;1.27;;
11763;SDS011;5939;56.522;14.950;2023-09-19T15:15:57;1.87;;;1.27;;
11763;SDS011;5939;56.522;14.950;2023-09-19T15:18:45;1.90;;;1.10;;
11763;SDS011;5939;56.522;14.950;2023-09-19T15:21:13;2.77;;;1.10;;
11763;SDS011;5939;56.522;14.950;2023-09-19T15:23:40;3.67;;;1.20;;
11763;SDS011;5939;56.522;14.950;2023-09-19T15:26:07;3.50;;;1.20;;
11763;SDS011;5939;56.522;14.950;2023-09-19T15:28:34;2.63;;;1.10;;
11763;SDS011;5939;56.522;14.950;2023-09-19T15:31:01;1.53;;;1.30;;
11763;SDS011;5939;56.522;14.950;2023-09-19T15:33:27;1.53;;;1.10;;
11763;SDS011;5939;56.522;14.950;2023-09-19T15:36:11;3.63;;;1.40;;
11763;SDS011;5939;56.522;14.950;2023-09-19T15:41:30;4.70;;;1.37;;
11763;SDS011;5939;56.522;14.950;2023-09-19T15:43:57;2.07;;;1.10;;
11763;SDS011;5939;56.522;14.950;2023-09-19T15:46:26;1.93;;;1.20;;
11763;SDS011;5939;56.522;14.950;2023-09-19T15:48:52;1.87;;;1.30;;
11763;SDS011;5939;56.522;14.950;2023-09-19T15:51:18;3.60;;;1.40;;
11763;SDS011;5939;56.522;14.950;2023-09-19T15:53:45;3.80;;;1.30;;